Main page
METAR-TAF:

METAR-TAF

Airports :

Sofia Airport

Sofia, Bulgaria

latitude: 42-39N, longitude: 023-23E, elevation: 586 m

Current weather observation

The report was made 14 minutes ago, at 01:00 UTC
Wind 3 kt from the Southeast, varying between East and South
Temperature 2°C
Humidity 69%
Pressure 1023 hPa
Visibility 10 km or more
no clouds below 1500 m and no cumulonimbus

METAR: LBSF 110100Z 13003KT 090V170 CAVOK 02/M03 Q1023 NOSIG

Time: 04:14 (01:14 UTC)

Forecast

The report was made 2 hours and 14 minutes ago, at 23:00 UTC
Forecast valid from 11 at 00 UTC to 11 at 24 UTC
Wind 4 kt from variable directions
Visibility 10 km or more
no clouds below 1500 m and no cumulonimbus
Becoming
from 11 at 14 UTC to 11 at 16 UTC
Wind 10 kt from the East

TAF: LBSF 102300Z 1100/1124 VRB04KT CAVOK BECMG 1114/1116 10010KT

Weather observations and forecasts of more than 4000 airports (METAR and TAF reports).

The available stations are represented by yellow and red dots on the map.

Hover mouse over dot to see the name of the station.

Then click to see weather observations and forecasts.

To change the map : click on the green buttons with a black cross to zoom in, on the green button with a dash to zoom out, or on the green arrows for adjacent maps.


METAR-TAF: